Time;durP1;ratioP1;P1;durP2;ratioP2;P2;SDS_P1;SDS_P2;PMS_P1;PMS_P2;Temp;Humidity;BMP_temperature;BMP_pressure;BME280_temperature;BME280_humidity;BME280_pressure;Samples;Min_cycle;Max_cycle;Signal;HPM_P1;HPM_P2
2023/04/25 08:48:14;;;;;;;2.35;1.27;;;;;;;26.87;40.60;98123.06;5771112;23;20327;-88
2023/04/25 08:50:44;;;;;;;4.55;1.38;;;;;;;27.18;39.03;98125.06;4974883;28;20246;-87
2023/04/25 08:53:16;;;;;;;2.97;1.35;;;;;;;27.31;38.34;98116.97;4975396;28;20193;-88
2023/04/25 08:55:42;;;;;;;2.10;1.13;;;;;;;27.47;38.90;98113.03;4974987;28;20219;-87
2023/04/25 08:58:10;;;;;;;3.67;1.58;;;;;;;27.56;38.81;98117.16;4974779;28;20204;-87
2023/04/25 09:00:36;;;;;;;3.97;1.70;;;;;;;27.72;40.20;98108.59;4974647;28;20191;-87
2023/04/25 09:03:02;;;;;;;3.08;1.23;;;;;;;27.79;39.74;98110.22;4972595;28;20188;-87
2023/04/25 09:05:28;;;;;;;2.70;1.42;;;;;;;27.72;37.20;98100.50;4969498;28;20188;-88
2023/04/25 09:07:54;;;;;;;3.63;1.52;;;;;;;27.79;38.50;98098.59;4974001;28;20185;-88
2023/04/25 09:10:19;;;;;;;2.03;1.23;;;;;;;27.85;37.63;98100.44;4974286;28;20203;-88
2023/04/25 09:13:01;;;;;;;2.63;1.30;;;;;;;27.87;38.19;98087.59;4973938;28;20595;-88
2023/04/25 09:15:27;;;;;;;3.22;1.38;;;;;;;27.85;39.79;98084.28;4974310;28;20173;-88
2023/04/25 09:17:57;;;;;;;2.67;1.40;;;;;;;28.07;39.13;98082.94;4972864;28;20199;-87
2023/04/25 09:20:25;;;;;;;6.63;1.73;;;;;;;28.11;39.63;98080.63;4974389;28;20649;-88
2023/04/25 09:23:04;;;;;;;5.18;1.58;;;;;;;28.16;37.11;98084.34;4974061;28;20184;-88
2023/04/25 09:25:36;;;;;;;4.82;1.67;;;;;;;28.07;37.63;98080.22;4973010;28;20188;-88
2023/04/25 09:28:05;;;;;;;3.20;1.40;;;;;;;27.98;36.56;98082.34;4950344;28;20612;-87
2023/04/25 09:30:34;;;;;;;3.67;1.65;;;;;;;27.78;36.97;98080.78;4970637;28;20177;-87
2023/04/25 09:33:11;;;;;;;2.25;1.15;;;;;;;27.54;37.16;98081.53;4972822;28;20184;-88
2023/04/25 09:35:42;;;;;;;2.35;1.20;;;;;;;26.99;37.49;98074.84;4973848;28;20261;-87
2023/04/25 09:38:18;;;;;;;2.47;1.30;;;;;;;26.95;37.23;98079.81;4974573;28;20299;-87
2023/04/25 09:40:47;;;;;;;3.28;1.55;;;;;;;26.71;37.99;98070.50;4954984;28;20275;-87
2023/04/25 09:43:24;;;;;;;4.53;1.40;;;;;;;26.26;38.01;98065.16;4954885;28;20215;-87
2023/04/25 09:45:53;;;;;;;1.70;0.90;;;;;;;26.38;38.79;98068.88;4972074;28;20238;-87
2023/04/25 09:48:20;;;;;;;2.95;1.27;;;;;;;26.52;38.91;98065.16;4972653;28;20243;-87
2023/04/25 09:51:08;;;;;;;3.25;1.00;;;;;;;26.29;39.22;98067.41;4973772;28;20275;-88
2023/04/25 09:53:42;;;;;;;2.10;0.93;;;;;;;26.23;37.76;98067.19;4958534;28;20275;-87
2023/04/25 09:56:11;;;;;;;1.40;0.80;;;;;;;26.16;37.05;98065.53;4957071;28;20173;-86
2023/04/25 09:58:39;;;;;;;2.20;1.00;;;;;;;25.83;37.21;98070.84;4973936;28;20659;-87
2023/04/25 10:01:10;;;;;;;3.13;1.40;;;;;;;25.84;38.37;98066.31;4956283;28;20199;-87
2023/04/25 10:03:42;;;;;;;2.37;1.00;;;;;;;25.66;39.52;98072.22;4961416;28;20677;-87
2023/04/25 10:06:28;;;;;;;2.53;1.20;;;;;;;25.25;39.56;98082.13;4955474;28;20223;-86
2023/04/25 10:08:56;;;;;;;3.10;1.23;;;;;;;24.97;41.99;98090.25;4973742;28;20302;-87
2023/04/25 10:11:24;;;;;;;4.03;1.47;;;;;;;24.34;41.88;98091.19;4973320;28;20223;-87
2023/04/25 10:13:52;;;;;;;8.60;3.20;;;;;;;24.26;42.30;98091.31;4956787;28;20189;-87
2023/04/25 10:16:18;;;;;;;3.97;1.63;;;;;;;24.44;44.87;98087.16;4973245;28;20192;-87
2023/04/25 10:18:46;;;;;;;5.23;1.47;;;;;;;24.06;45.84;98083.03;4973070;28;20180;-88
2023/04/25 10:21:14;;;;;;;3.47;1.60;;;;;;;24.01;47.48;98087.31;4973830;28;20645;-90
2023/04/25 10:23:41;;;;;;;3.13;1.70;;;;;;;23.85;47.88;98080.34;4973076;28;20228;-89
2023/04/25 10:26:12;;;;;;;3.27;1.40;;;;;;;23.52;49.31;98093.38;4962634;28;20220;-89
2023/04/25 10:29:02;;;;;;;4.53;1.60;;;;;;;23.72;48.90;98094.41;4981487;28;20259;-90
2023/04/25 10:31:32;;;;;;;3.23;1.63;;;;;;;23.58;49.51;98097.97;4956461;28;20284;-90
2023/04/25 10:34:00;;;;;;;4.40;1.70;;;;;;;23.32;51.79;98099.44;4973678;28;20251;-90
2023/04/25 10:36:31;;;;;;;3.90;1.70;;;;;;;23.27;53.29;98100.81;4956935;28;20223;-91
2023/04/25 10:39:09;;;;;;;4.30;1.70;;;;;;;22.90;55.34;98097.44;4974546;28;20165;-91
2023/04/25 10:41:53;;;;;;;4.07;1.90;;;;;;;22.55;57.07;98104.25;4945549;28;20192;-90
2023/04/25 10:44:19;;;;;;;2.00;1.20;;;;;;;22.15;54.96;98104.56;4958391;28;20212;-90
2023/04/25 10:46:46;;;;;;;4.80;1.17;;;;;;;21.43;56.79;98102.13;4975120;28;20194;-90
2023/04/25 10:49:34;;;;;;;2.63;1.30;;;;;;;21.10;58.25;98108.63;4979075;28;20302;-90
2023/04/25 10:52:26;;;;;;;9.23;1.40;;;;;;;20.37;60.32;98112.38;4992295;28;20205;-92
2023/04/25 10:54:56;;;;;;;2.40;1.27;;;;;;;19.89;63.69;98113.97;4976137;28;20252;-89
2023/04/25 10:57:30;;;;;;;2.00;1.30;;;;;;;19.10;65.88;98131.28;4975727;28;20184;-89
2023/04/25 11:00:18;;;;;;;2.00;1.20;;;;;;;18.77;67.63;98125.78;4959043;28;20303;-90
2023/04/25 11:02:47;;;;;;;1.93;1.10;;;;;;;18.48;68.65;98127.88;4958698;28;20621;-89
2023/04/25 11:05:19;;;;;;;2.90;1.10;;;;;;;18.53;68.94;98122.94;4971063;28;20359;-88
2023/04/25 11:07:51;;;;;;;3.23;1.50;;;;;;;18.69;68.01;98107.13;4949620;28;20222;-88
2023/04/25 11:10:18;;;;;;;2.20;1.17;;;;;;;18.91;68.79;98079.22;4956685;28;20216;-89
2023/04/25 11:12:45;;;;;;;2.80;1.30;;;;;;;19.21;66.27;98059.28;4974999;28;20189;-88
2023/04/25 11:15:10;;;;;;;2.70;1.00;;;;;;;19.21;67.71;98027.41;4975620;28;20180;-88
2023/04/25 11:17:36;;;;;;;2.13;0.80;;;;;;;19.15;69.69;98012.09;4975588;28;20634;-90
2023/04/25 11:20:07;;;;;;;2.53;1.10;;;;;;;18.82;70.84;97989.91;4965683;28;20279;-90
2023/04/25 11:22:33;;;;;;;2.67;0.90;;;;;;;19.23;70.72;98001.50;4977578;28;20570;-88
2023/04/25 11:25:04;;;;;;;2.23;0.90;;;;;;;19.67;69.30;97986.97;4975472;28;20653;-89
2023/04/25 11:27:30;;;;;;;1.73;0.70;;;;;;;19.97;68.89;97993.44;4958333;28;20199;-88
2023/04/25 11:29:55;;;;;;;14.17;1.70;;;;;;;20.30;68.92;97995.13;4975614;28;20192;-88
2023/04/25 11:32:21;;;;;;;1.87;0.97;;;;;;;20.63;68.74;97982.53;4975027;28;20267;-88
2023/04/25 11:34:46;;;;;;;1.80;0.80;;;;;;;21.04;68.79;97984.03;4975257;28;20634;-88
2023/04/25 11:37:12;;;;;;;0.93;0.40;;;;;;;21.38;65.00;97975.72;4975277;28;20192;-88
2023/04/25 11:39:38;;;;;;;1.23;0.30;;;;;;;21.84;58.44;97982.72;4958015;28;20283;-88
2023/04/25 11:42:05;;;;;;;0.87;0.20;;;;;;;22.20;55.63;97980.25;4975413;28;20255;-88
2023/04/25 11:44:32;;;;;;;0.57;0.17;;;;;;;22.66;53.08;97972.97;4976756;28;20661;-88
2023/04/25 11:46:58;;;;;;;1.90;0.20;;;;;;;22.84;47.86;97969.91;4984126;28;20192;-88
2023/04/25 11:49:33;;;;;;;0.50;0.10;;;;;;;23.01;47.34;97968.66;4957914;28;20239;-88
2023/04/25 11:52:00;;;;;;;0.30;0.20;;;;;;;23.31;48.14;97972.09;4958484;28;20191;-89
2023/04/25 11:54:26;;;;;;;0.50;0.20;;;;;;;23.52;46.22;97970.31;4958112;28;20626;-89
2023/04/25 11:56:53;;;;;;;0.30;0.20;;;;;;;23.77;47.89;97976.94;4975441;28;20172;-90
2023/04/25 11:59:26;;;;;;;0.53;0.20;;;;;;;24.12;48.54;97972.53;4975476;28;20513;-91
2023/04/25 12:01:53;;;;;;;0.10;0.10;;;;;;;24.53;44.76;97958.41;4974395;28;20202;-89
2023/04/25 12:04:22;;;;;;;0.67;0.30;;;;;;;24.72;43.42;97946.94;4975398;28;20234;-91
2023/04/25 12:06:51;;;;;;;0.50;0.20;;;;;;;24.87;45.13;97937.78;4975559;28;20271;-90
2023/04/25 12:09:23;;;;;;;0.70;0.30;;;;;;;24.96;44.08;97928.56;4942480;28;20188;-90
2023/04/25 12:11:55;;;;;;;0.43;0.30;;;;;;;24.97;44.22;97922.13;4958368;28;20254;-90
2023/04/25 12:14:27;;;;;;;1.70;0.33;;;;;;;24.94;42.59;97909.16;4975335;28;20169;-89
2023/04/25 12:16:54;;;;;;;0.87;0.30;;;;;;;24.84;41.91;97908.69;4975160;28;20176;-91
2023/04/25 12:19:20;;;;;;;0.50;0.30;;;;;;;24.80;42.57;97902.09;4957063;28;20199;-90
2023/04/25 12:21:46;;;;;;;0.70;0.30;;;;;;;24.74;42.45;97908.22;4958187;28;20184;-90
2023/04/25 12:24:18;;;;;;;0.40;0.20;;;;;;;24.64;41.16;97902.41;4975509;28;20295;-91
2023/04/25 12:26:50;;;;;;;0.73;0.30;;;;;;;24.75;41.07;97891.13;4958186;28;20267;-90
2023/04/25 12:29:21;;;;;;;0.47;0.27;;;;;;;25.15;41.33;97893.94;4958068;28;20196;-91
2023/04/25 12:31:47;;;;;;;0.53;0.20;;;;;;;25.55;40.94;97895.72;4958359;28;20204;-91
2023/04/25 12:34:12;;;;;;;0.63;0.22;;;;;;;25.86;40.19;97897.78;4975714;28;20223;-91
2023/04/25 12:36:38;;;;;;;0.90;0.40;;;;;;;26.23;40.24;97897.97;4975453;28;20177;-90
2023/04/25 12:39:06;;;;;;;0.75;0.30;;;;;;;26.54;39.67;97894.59;4958272;28;20191;-91
2023/04/25 12:41:31;;;;;;;0.30;0.10;;;;;;;26.93;37.82;97896.31;4975270;28;20696;-91
2023/04/25 12:43:57;;;;;;;0.73;0.20;;;;;;;27.16;35.58;97891.25;4975202;28;20212;-91
2023/04/25 12:46:22;;;;;;;0.93;0.30;;;;;;;27.32;35.67;97892.59;4975416;28;20187;-91
2023/04/25 12:48:48;;;;;;;0.52;0.30;;;;;;;27.40;35.14;97893.19;4975610;28;20220;-91
2023/04/25 12:51:14;;;;;;;0.95;0.50;;;;;;;27.31;36.18;97897.16;4958143;28;20532;-91
2023/04/25 12:53:40;;;;;;;1.25;0.30;;;;;;;27.34;37.45;97902.09;4960926;28;20528;-92
2023/04/25 12:56:07;;;;;;;0.82;0.43;;;;;;;27.24;36.80;97904.44;4977575;28;20215;-90
2023/04/25 12:58:33;;;;;;;0.85;0.50;;;;;;;27.10;36.86;97902.84;4994406;28;20188;-90
2023/04/25 13:01:00;;;;;;;1.40;0.30;;;;;;;26.67;36.88;97897.25;4958543;28;20286;-90
2023/04/25 13:03:26;;;;;;;0.70;0.30;;;;;;;26.80;37.23;97891.84;4978270;28;20619;-90
2023/04/25 13:05:54;;;;;;;2.10;0.80;;;;;;;26.83;36.05;97886.00;4973978;28;20181;-90
2023/04/25 13:08:21;;;;;;;1.70;0.70;;;;;;;26.82;36.30;97884.38;4975076;28;20180;-90
2023/04/25 13:10:48;;;;;;;0.45;0.25;;;;;;;26.88;35.64;97880.00;4974479;28;20641;-91
2023/04/25 13:13:16;;;;;;;1.20;0.40;;;;;;;27.00;35.69;97880.97;4957272;28;20189;-90
2023/04/25 13:15:43;;;;;;;0.98;0.40;;;;;;;27.35;35.74;97868.78;4974403;28;20184;-91
2023/04/25 13:18:10;;;;;;;0.40;0.25;;;;;;;27.33;34.02;97860.06;4957305;28;20184;-90
2023/04/25 13:20:37;;;;;;;1.10;0.38;;;;;;;27.19;36.57;97863.91;4974269;28;20359;-90
2023/04/25 13:23:04;;;;;;;1.33;0.50;;;;;;;27.23;37.21;97864.28;4957313;28;20188;-89
2023/04/25 13:25:31;;;;;;;1.17;0.50;;;;;;;27.22;34.16;97868.03;4964119;28;20211;-89
2023/04/25 13:27:58;;;;;;;0.73;0.40;;;;;;;27.05;34.27;97870.41;4986450;28;20219;-88
2023/04/25 13:30:25;;;;;;;2.08;0.93;;;;;;;26.96;35.27;97866.31;4973576;28;20184;-90
2023/04/25 13:32:56;;;;;;;2.40;0.63;;;;;;;26.55;36.05;97860.47;4957592;28;20192;-89
2023/04/25 13:35:22;;;;;;;2.20;0.98;;;;;;;25.95;37.11;97867.81;4974011;28;20177;-91
2023/04/25 13:37:49;;;;;;;3.50;0.70;;;;;;;26.19;37.27;97863.66;4937857;29;20216;-90
2023/04/25 13:40:33;;;;;;;1.85;0.80;;;;;;;26.20;37.79;97863.44;4947738;28;20191;-90
2023/04/25 13:43:38;;;;;;;;;;;;;;;;;;;;;
2023/04/25 13:46:40;;;;;;;1.33;0.70;;;;;;;26.12;37.99;97863.69;4914298;29;20698;-91
2023/04/25 13:49:22;;;;;;;1.52;0.68;;;;;;;26.17;37.57;97874.66;4914982;29;20226;-90
2023/04/25 13:51:57;;;;;;;1.90;0.73;;;;;;;25.85;38.92;97883.53;4896921;29;20183;-91
2023/04/25 13:54:24;;;;;;;1.38;0.70;;;;;;;25.78;37.03;97884.56;4898533;29;20631;-90
2023/04/25 13:57:13;;;;;;;2.15;0.55;;;;;;;25.69;37.15;97888.47;4914483;29;20246;-91
2023/04/25 13:59:59;;;;;;;1.60;0.80;;;;;;;25.57;38.69;97888.28;4914590;29;20257;-90
2023/04/25 14:02:26;;;;;;;4.68;0.90;;;;;;;25.03;40.27;97874.94;4914880;29;20273;-89
2023/04/25 14:04:56;;;;;;;3.05;0.70;;;;;;;24.71;41.70;97871.06;4914652;29;20289;-90
2023/04/25 14:07:35;;;;;;;1.48;0.68;;;;;;;24.79;42.05;97865.59;4899143;29;20221;-90
2023/04/25 14:10:48;;;;;;;2.17;1.10;;;;;;;24.52;42.91;97854.94;4914793;29;20611;-89
2023/04/25 14:13:17;;;;;;;1.70;0.82;;;;;;;23.60;45.43;97863.19;4898942;29;20266;-89
2023/04/25 14:15:57;;;;;;;;;;;;;;;;;;;;;
2023/04/25 14:18:36;;;;;;;1.80;1.00;;;;;;;22.56;48.54;97868.22;4955791;29;20193;-88
2023/04/25 14:21:01;;;;;;;3.33;1.20;;;;;;;22.47;49.02;97866.66;4964681;28;20184;-88
2023/04/25 14:23:30;;;;;;;2.27;1.17;;;;;;;22.07;49.76;97864.44;4974195;28;20243;-89
2023/04/25 14:25:55;;;;;;;1.43;0.83;;;;;;;21.97;50.57;97870.91;4976781;28;20185;-89
2023/04/25 14:28:21;;;;;;;3.00;1.30;;;;;;;22.48;49.96;97876.34;4976468;28;20191;-89
2023/04/25 14:30:46;;;;;;;2.20;1.03;;;;;;;22.48;49.44;97879.81;4976238;28;20188;-89
2023/04/25 14:33:13;;;;;;;2.80;1.30;;;;;;;22.57;nan;97876.03;4959479;28;20191;-88
2023/04/25 14:35:38;;;;;;;6.70;1.50;;;;;;;22.57;50.08;97868.03;4976119;28;20223;-88
2023/04/25 14:38:05;;;;;;;1.97;0.97;;;;;;;22.54;51.27;97862.22;4976062;28;20212;-91
2023/04/25 14:40:30;;;;;;;1.17;0.67;;;;;;;22.25;52.52;97875.63;4959539;28;20647;-87
2023/04/25 14:42:56;;;;;;;2.83;0.80;;;;;;;22.42;52.97;97882.41;4976265;28;20271;-88
2023/04/25 14:45:21;;;;;;;2.00;0.90;;;;;;;22.49;52.78;97867.28;4975765;28;20295;-89
2023/04/25 14:47:47;;;;;;;4.30;1.00;;;;;;;22.40;54.22;97871.94;4976219;28;20520;-87
2023/04/25 14:50:12;;;;;;;3.40;1.13;;;;;;;22.11;54.51;97866.59;4948251;28;20228;-89
2023/04/25 14:52:38;;;;;;;2.87;1.40;;;;;;;21.94;56.07;97873.09;4977165;28;20180;-89
2023/04/25 14:55:04;;;;;;;4.40;1.30;;;;;;;21.69;54.75;97872.50;4958949;28;20188;-89
2023/04/25 14:57:31;;;;;;;2.17;0.80;;;;;;;21.58;54.82;97883.59;4976183;28;20176;-88
2023/04/25 14:59:57;;;;;;;2.40;1.17;;;;;;;21.63;54.72;97883.03;4975644;28;20571;-89
2023/04/25 15:02:23;;;;;;;2.73;1.53;;;;;;;21.78;54.46;97887.41;4976076;28;20180;-91
2023/04/25 15:04:49;;;;;;;3.53;1.20;;;;;;;21.79;53.93;97891.72;4975852;28;20219;-89
2023/04/25 15:07:15;;;;;;;3.83;1.20;;;;;;;21.70;54.08;97889.28;4975872;28;20196;-90
2023/04/25 15:09:40;;;;;;;2.43;1.20;;;;;;;21.79;53.92;97893.56;4958974;28;20188;-88
2023/04/25 15:12:06;;;;;;;2.70;1.43;;;;;;;21.95;53.40;97898.78;4976044;28;20672;-89
2023/04/25 15:14:31;;;;;;;2.60;1.20;;;;;;;21.93;53.77;97906.13;4975419;28;20622;-88
2023/04/25 15:16:57;;;;;;;3.33;1.40;;;;;;;21.94;53.74;97915.78;4975984;28;20199;-88
2023/04/25 15:19:22;;;;;;;3.23;1.77;;;;;;;21.83;53.67;97910.84;4975758;28;20188;-90
2023/04/25 15:21:48;;;;;;;3.57;1.50;;;;;;;21.73;54.82;97915.63;4974329;28;20659;-90
2023/04/25 15:24:27;;;;;;;2.07;1.20;;;;;;;21.55;55.74;97928.44;4974607;28;20219;-91
2023/04/25 15:26:52;;;;;;;2.60;1.40;;;;;;;21.74;56.15;97927.94;4974226;28;20180;-92
2023/04/25 15:29:23;;;;;;;4.70;1.40;;;;;;;21.62;57.37;97924.06;4958271;28;20548;-92
2023/04/25 15:31:48;;;;;;;3.10;1.30;;;;;;;21.17;58.91;97927.56;4957896;28;20184;-92
2023/04/25 15:34:14;;;;;;;3.07;1.30;;;;;;;20.96;60.68;97937.97;4966671;28;20190;-91
2023/04/25 15:36:39;;;;;;;2.60;1.13;;;;;;;20.97;61.35;97937.78;4960546;28;20195;-91
2023/04/25 15:39:05;;;;;;;4.57;1.43;;;;;;;20.73;62.48;97937.91;4980810;28;20254;-91
2023/04/25 15:41:30;;;;;;;3.20;1.30;;;;;;;20.38;64.69;97917.09;4958771;28;20219;-90
2023/04/25 15:43:56;;;;;;;3.00;1.50;;;;;;;20.03;66.40;97903.19;4960697;28;20211;-91
2023/04/25 15:46:22;;;;;;;4.87;1.83;;;;;;;19.64;68.32;97902.25;4975802;28;20195;-91
2023/04/25 15:48:48;;;;;;;3.53;1.33;;;;;;;19.30;68.04;97899.72;4958426;28;20180;-89
2023/04/25 15:51:13;;;;;;;3.10;1.43;;;;;;;19.05;67.95;97905.19;4959251;28;20250;-90
2023/04/25 15:53:39;;;;;;;4.57;1.63;;;;;;;19.11;67.69;97894.72;4958060;28;20184;-89
2023/04/25 15:56:05;;;;;;;2.33;1.23;;;;;;;19.35;66.33;97892.09;4975243;28;20339;-89
2023/04/25 15:58:30;;;;;;;3.87;1.20;;;;;;;19.44;65.33;97890.28;4974636;28;20185;-90
2023/04/25 16:00:56;;;;;;;2.60;1.50;;;;;;;19.42;65.62;97889.59;4958598;28;20640;-89
2023/04/25 16:03:22;;;;;;;2.07;1.00;;;;;;;19.36;67.05;97893.75;4975483;28;20741;-90
2023/04/25 16:05:48;;;;;;;3.60;1.50;;;;;;;19.02;67.08;97891.22;4975469;28;20187;-89
2023/04/25 16:08:13;;;;;;;1.87;0.73;;;;;;;18.63;68.78;97892.78;4976018;28;20177;-90
2023/04/25 16:10:39;;;;;;;2.30;0.83;;;;;;;18.59;68.41;97888.78;4958632;28;20198;-89
2023/04/25 16:13:04;;;;;;;3.93;1.07;;;;;;;18.53;69.53;97900.03;4958863;28;20218;-89
2023/04/25 16:15:31;;;;;;;1.27;0.70;;;;;;;18.53;69.06;97884.13;4958563;28;20191;-88
2023/04/25 16:17:56;;;;;;;1.47;0.70;;;;;;;18.50;68.85;97887.09;4958377;28;20184;-90
2023/04/25 16:20:22;;;;;;;1.03;0.50;;;;;;;18.43;68.59;97880.72;4958387;28;20176;-89
2023/04/25 16:22:47;;;;;;;5.27;1.03;;;;;;;18.50;67.49;97878.31;4976025;28;20180;-91
2023/04/25 16:25:13;;;;;;;5.10;0.90;;;;;;;18.42;67.62;97882.56;4984121;28;20203;-90
2023/04/25 16:27:39;;;;;;;2.67;0.80;;;;;;;18.15;67.93;97884.59;4977794;28;20171;-91
2023/04/25 16:30:08;;;;;;;2.13;0.90;;;;;;;18.35;67.85;97889.50;4994931;28;20183;-90
2023/04/25 16:32:34;;;;;;;2.33;1.00;;;;;;;18.45;68.10;97883.25;4978518;28;20187;-90
2023/04/25 16:35:00;;;;;;;2.53;1.00;;;;;;;18.48;67.79;97878.47;4975313;28;20528;-90
2023/04/25 16:37:26;;;;;;;2.10;1.10;;;;;;;18.47;68.01;97890.09;4958143;28;20184;-90
2023/04/25 16:39:51;;;;;;;6.03;0.80;;;;;;;18.39;68.87;97898.78;4989750;28;20183;-90
2023/04/25 16:42:17;;;;;;;3.30;1.33;;;;;;;18.46;69.42;97898.16;4977426;28;20179;-89
2023/04/25 16:44:42;;;;;;;3.17;1.20;;;;;;;17.99;70.22;97903.06;4994442;28;20203;-90
2023/04/25 16:47:08;;;;;;;2.60;1.10;;;;;;;18.12;70.68;97917.56;4977389;28;20531;-90
2023/04/25 16:49:33;;;;;;;3.47;1.30;;;;;;;18.16;70.90;97931.34;4974397;28;20200;-90
2023/04/25 16:51:59;;;;;;;2.80;1.40;;;;;;;18.20;70.59;97932.69;4974850;28;20208;-90
2023/04/25 16:54:24;;;;;;;1.57;0.90;;;;;;;18.35;70.81;97925.78;4974918;28;20360;-90
2023/04/25 16:56:51;;;;;;;1.70;0.60;;;;;;;18.48;70.00;97926.22;4975095;28;20180;-90
2023/04/25 16:59:17;;;;;;;5.53;1.00;;;;;;;18.62;69.04;97936.25;4957922;28;20259;-90
2023/04/25 17:01:42;;;;;;;1.47;0.60;;;;;;;18.63;68.94;97937.88;4957914;28;20188;-90
2023/04/25 17:04:08;;;;;;;5.10;1.00;;;;;;;18.61;68.79;97939.88;4955578;28;20200;-90
2023/04/25 17:06:34;;;;;;;1.27;0.70;;;;;;;18.61;68.27;97949.66;4970009;28;20211;-89
2023/04/25 17:09:00;;;;;;;0.73;0.50;;;;;;;18.63;67.85;97948.50;4974155;28;20202;-89
2023/04/25 17:11:26;;;;;;;1.47;0.77;;;;;;;18.70;67.42;97944.25;4974660;28;20202;-90
2023/04/25 17:13:52;;;;;;;2.53;0.80;;;;;;;18.71;67.17;97945.88;4977604;28;20532;-90
2023/04/25 17:16:23;;;;;;;2.77;1.07;;;;;;;18.82;66.87;97953.56;4978037;28;20539;-89
2023/04/25 17:18:52;;;;;;;1.10;0.63;;;;;;;18.84;66.66;97953.41;4973425;28;20194;-90
2023/04/25 17:21:17;;;;;;;1.63;0.43;;;;;;;18.80;66.65;97968.00;4956808;28;20195;-90
2023/04/25 17:23:44;;;;;;;1.03;0.60;;;;;;;18.81;66.42;97967.84;4973630;28;20216;-89
2023/04/25 17:26:13;;;;;;;1.67;0.80;;;;;;;18.79;66.54;97974.28;4973103;28;20184;-90
2023/04/25 17:28:40;;;;;;;3.93;1.50;;;;;;;18.76;67.08;97971.97;4973652;28;20295;-90
2023/04/25 17:31:07;;;;;;;2.87;1.47;;;;;;;18.60;67.29;97980.69;4971464;28;20186;-89
2023/04/25 17:33:32;;;;;;;1.50;0.87;;;;;;;18.62;67.66;97989.31;4973433;28;20237;-89
2023/04/25 17:35:58;;;;;;;1.93;1.10;;;;;;;18.70;67.24;98002.63;4957911;28;20244;-89
2023/04/25 17:38:24;;;;;;;2.50;1.20;;;;;;;18.61;67.47;98008.88;4956610;28;20611;-89
2023/04/25 17:40:49;;;;;;;6.20;0.60;;;;;;;18.74;67.06;98014.59;4956980;28;20200;-90
2023/04/25 17:43:15;;;;;;;2.97;1.20;;;;;;;18.89;66.45;98023.59;4974142;28;20633;-89
2023/04/25 17:45:40;;;;;;;2.23;0.90;;;;;;;18.81;66.42;98026.25;4975906;28;20569;-90
2023/04/25 17:48:06;;;;;;;1.93;0.90;;;;;;;18.45;66.62;98035.28;4973646;28;20263;-89
2023/04/25 17:50:31;;;;;;;2.20;0.60;;;;;;;18.39;65.96;98034.09;4976610;28;20301;-90
2023/04/25 17:52:57;;;;;;;1.83;0.80;;;;;;;18.36;65.62;98042.38;4977377;28;20190;-89
2023/04/25 17:55:23;;;;;;;1.17;0.63;;;;;;;18.24;66.06;98035.66;4977631;28;20181;-89
2023/04/25 17:57:49;;;;;;;2.93;0.83;;;;;;;18.08;65.41;98042.69;4977458;28;20284;-90
2023/04/25 18:00:15;;;;;;;3.40;1.30;;;;;;;18.11;65.89;98045.00;4977142;28;20626;-89
2023/04/25 18:02:40;;;;;;;13.50;5.17;;;;;;;18.19;66.19;98045.06;4978413;28;20192;-89
2023/04/25 18:05:09;;;;;;;10.00;4.03;;;;;;;18.22;66.01;98055.38;4976418;28;20220;-88
2023/04/25 18:07:35;;;;;;;6.67;3.03;;;;;;;18.29;65.55;98059.09;4977042;28;20199;-89
2023/04/25 18:10:04;;;;;;;3.90;1.67;;;;;;;18.02;66.75;98067.16;4976606;28;20189;-90
2023/04/25 18:12:32;;;;;;;3.30;1.73;;;;;;;17.89;68.02;98074.66;4963459;28;20228;-89
2023/04/25 18:14:57;;;;;;;2.37;1.30;;;;;;;18.04;67.93;98081.91;4964214;28;20194;-89
2023/04/25 18:17:24;;;;;;;3.00;1.10;;;;;;;18.13;67.69;98085.47;4960044;28;20200;-89
2023/04/25 18:19:50;;;;;;;4.40;0.80;;;;;;;18.13;67.68;98077.53;4976317;28;20196;-89
2023/04/25 18:22:16;;;;;;;3.03;1.40;;;;;;;18.12;68.36;98070.53;4984124;28;20193;-89
2023/04/25 18:24:44;;;;;;;4.60;1.27;;;;;;;18.21;67.76;98080.25;4976976;28;20198;-89
2023/04/25 18:27:09;;;;;;;1.80;1.00;;;;;;;18.34;66.90;98078.03;4976471;28;20188;-89
2023/04/25 18:29:36;;;;;;;2.17;1.00;;;;;;;18.20;67.41;98081.22;4959943;28;20181;-89
2023/04/25 18:32:03;;;;;;;4.83;2.03;;;;;;;17.80;69.42;98077.22;4964716;28;20184;-89
2023/04/25 18:34:29;;;;;;;10.90;3.20;;;;;;;17.79;69.70;98072.91;4978087;28;20510;-89
2023/04/25 18:36:55;;;;;;;6.80;2.23;;;;;;;17.89;69.38;98074.66;4976587;28;20192;-89
2023/04/25 18:39:22;;;;;;;4.00;1.90;;;;;;;17.78;69.46;98075.72;4976646;28;20184;-89
2023/04/25 18:41:48;;;;;;;3.70;1.50;;;;;;;17.85;68.65;98067.97;4958882;28;20187;-90
2023/04/25 18:44:13;;;;;;;5.27;2.10;;;;;;;17.91;68.36;98073.50;4977255;28;20215;-90
2023/04/25 18:46:42;;;;;;;4.30;1.77;;;;;;;17.93;68.43;98068.88;4976152;28;20676;-90
2023/04/25 18:49:08;;;;;;;3.87;1.63;;;;;;;17.91;68.70;98072.69;4975988;28;20211;-90
2023/04/25 18:51:34;;;;;;;5.23;2.37;;;;;;;17.91;68.70;98067.38;4976694;28;20199;-89
2023/04/25 18:54:00;;;;;;;4.77;1.50;;;;;;;17.96;68.76;98073.06;4976728;28;20185;-90
2023/04/25 18:56:27;;;;;;;3.97;1.97;;;;;;;18.02;68.33;98075.09;4957685;28;20721;-90
2023/04/25 18:58:53;;;;;;;4.77;1.83;;;;;;;18.01;68.22;98070.78;4978356;28;20199;-90
2023/04/25 19:01:20;;;;;;;2.80;1.40;;;;;;;17.86;69.10;98067.84;4959215;28;20195;-90
2023/04/25 19:03:54;;;;;;;3.63;1.50;;;;;;;17.78;69.25;98067.75;4978867;28;20208;-90
2023/04/25 19:06:22;;;;;;;3.20;1.77;;;;;;;17.71;69.74;98074.66;4981823;28;20203;-90
2023/04/25 19:08:49;;;;;;;3.37;1.67;;;;;;;17.73;69.84;98075.34;4980481;28;20196;-90
2023/04/25 19:11:15;;;;;;;4.10;1.97;;;;;;;17.74;69.78;98075.16;4975432;28;20267;-90
2023/04/25 19:13:41;;;;;;;6.80;2.70;;;;;;;17.74;69.93;98072.53;4976100;28;20309;-90
2023/04/25 19:16:06;;;;;;;11.50;3.07;;;;;;;17.82;69.40;98078.91;4958654;28;20196;-90
2023/04/25 19:18:32;;;;;;;11.20;4.20;;;;;;;17.81;69.16;98072.75;4975073;28;20193;-90
2023/04/25 19:20:57;;;;;;;13.93;5.27;;;;;;;17.75;69.07;98079.50;4975934;28;20189;-89
2023/04/25 19:23:25;;;;;;;10.17;4.50;;;;;;;17.63;69.86;98080.72;4976623;28;20192;-90
2023/04/25 19:25:51;;;;;;;8.33;3.57;;;;;;;17.35;71.56;98080.88;4975997;28;20245;-89
2023/04/25 19:28:16;;;;;;;6.40;2.73;;;;;;;17.25;71.54;98074.78;4975609;28;20343;-90
2023/04/25 19:30:42;;;;;;;9.57;3.87;;;;;;;17.10;72.42;98077.94;4958582;28;20646;-90
2023/04/25 19:33:07;;;;;;;5.77;2.70;;;;;;;17.13;72.35;98072.34;4979419;28;20212;-89
2023/04/25 19:35:33;;;;;;;5.53;1.80;;;;;;;17.20;70.83;98070.75;4962313;28;20279;-89
2023/04/25 19:37:58;;;;;;;2.37;1.50;;;;;;;17.07;71.29;98067.63;4975482;28;20192;-89
2023/04/25 19:40:25;;;;;;;4.60;1.40;;;;;;;17.13;71.08;98060.91;4978886;28;20193;-89
2023/04/25 19:42:50;;;;;;;3.07;1.33;;;;;;;17.26;70.73;98060.56;4978545;28;20188;-89
2023/04/25 19:45:16;;;;;;;3.27;1.50;;;;;;;17.31;70.43;98059.13;4975275;28;20211;-89
2023/04/25 19:47:42;;;;;;;4.53;2.17;;;;;;;17.28;70.27;98059.44;4978383;28;20207;-89
2023/04/25 19:50:08;;;;;;;3.90;2.13;;;;;;;17.33;70.00;98057.16;4974961;28;20196;-88
2023/04/25 19:52:35;;;;;;;2.60;1.33;;;;;;;17.19;70.48;98060.31;4975038;28;20193;-90
2023/04/25 19:55:03;;;;;;;3.53;1.83;;;;;;;17.16;70.59;98057.97;4975425;28;20663;-89
2023/04/25 19:57:35;;;;;;;3.00;1.30;;;;;;;17.16;70.38;98065.91;4975341;28;20196;-89
2023/04/25 20:00:11;;;;;;;2.67;1.30;;;;;;;17.21;69.94;98068.97;4975153;28;20183;-87
2023/04/25 20:02:38;;;;;;;3.50;1.50;;;;;;;17.29;69.71;98068.22;4975693;28;20223;-88
2023/04/25 20:05:05;;;;;;;3.33;1.53;;;;;;;17.31;69.44;98063.59;4975442;28;20208;-88
2023/04/25 20:07:32;;;;;;;3.47;1.43;;;;;;;17.36;69.10;98066.63;4975299;28;20195;-88
2023/04/25 20:10:03;;;;;;;3.03;1.43;;;;;;;17.39;69.16;98066.34;4975854;28;20176;-88
2023/04/25 20:12:30;;;;;;;5.00;1.80;;;;;;;17.43;69.43;98063.22;4975159;28;20180;-88
2023/04/25 20:14:57;;;;;;;4.63;1.70;;;;;;;17.50;69.10;98059.03;4957483;28;20544;-89
2023/04/25 20:17:24;;;;;;;2.80;1.40;;;;;;;17.50;68.52;98053.72;4975474;28;20262;-89
2023/04/25 20:19:51;;;;;;;5.97;1.40;;;;;;;17.48;68.43;98053.00;4975806;28;20196;-90
2023/04/25 20:22:18;;;;;;;2.63;1.40;;;;;;;17.49;68.81;98060.00;4977747;28;20621;-90
2023/04/25 20:24:45;;;;;;;3.57;1.27;;;;;;;17.50;69.12;98053.72;4995005;28;20692;-90
2023/04/25 20:27:11;;;;;;;2.17;1.20;;;;;;;17.41;69.17;98054.59;4977899;28;20184;-90
2023/04/25 20:30:24;;;;;;;3.07;1.50;;;;;;;17.52;68.76;98051.75;4994899;28;20184;-89